createdAt,value
2018-06-13T00:00:34.380Z,18.50
2018-06-13T00:03:03.505Z,18.50
2018-06-13T00:05:32.384Z,18.30
2018-06-13T00:08:01.094Z,18.40
2018-06-13T00:10:29.910Z,18.30
2018-06-13T00:12:58.685Z,18.20
2018-06-13T00:15:27.456Z,18.30
2018-06-13T00:17:56.564Z,18.40
2018-06-13T00:20:25.508Z,18.30
2018-06-13T00:22:54.555Z,18.30
2018-06-13T00:25:23.481Z,18.20
2018-06-13T00:27:52.389Z,18.20
2018-06-13T00:30:21.201Z,18.20
2018-06-13T00:32:49.993Z,18.10
2018-06-13T00:35:18.770Z,18.10
2018-06-13T00:37:47.647Z,18.20
2018-06-13T00:40:16.738Z,18.20
2018-06-13T00:42:45.800Z,18.20
2018-06-13T00:45:14.581Z,18.10
2018-06-13T00:47:43.409Z,18.00
2018-06-13T00:50:12.470Z,18.30
2018-06-13T00:52:41.290Z,18.20
2018-06-13T00:55:10.352Z,18.10
2018-06-13T00:57:39.130Z,18.20
2018-06-13T01:00:07.934Z,18.10
2018-06-13T01:05:05.420Z,18.10
2018-06-13T01:07:34.205Z,18.20
2018-06-13T01:10:03.056Z,18.00
2018-06-13T01:12:31.969Z,17.90
2018-06-13T01:15:00.873Z,18.10
2018-06-13T01:17:29.832Z,18.10
2018-06-13T01:19:58.665Z,18.20
2018-06-13T01:22:27.792Z,18.00
2018-06-13T01:24:56.585Z,18.10
2018-06-13T01:27:25.766Z,17.90
2018-06-13T01:29:54.493Z,17.90
2018-06-13T01:32:23.235Z,18.00
2018-06-13T01:34:51.991Z,18.20
2018-06-13T01:37:21.082Z,18.10
2018-06-13T01:39:50.157Z,18.10
2018-06-13T01:42:18.934Z,18.00
2018-06-13T01:44:47.773Z,18.00
2018-06-13T01:47:16.919Z,18.00
2018-06-13T01:49:45.991Z,18.00
2018-06-13T01:52:14.853Z,18.00
2018-06-13T01:54:44.055Z,18.00
2018-06-13T01:57:12.905Z,18.00
2018-06-13T01:59:41.700Z,18.20
2018-06-13T02:02:10.610Z,18.10
2018-06-13T02:04:39.976Z,17.90
2018-06-13T02:07:09.232Z,17.90
2018-06-13T02:09:38.104Z,17.80
2018-06-13T02:12:07.266Z,17.90
2018-06-13T02:14:36.081Z,17.80
2018-06-13T02:19:33.626Z,17.70
2018-06-13T02:22:02.399Z,17.70
2018-06-13T02:24:31.572Z,17.60
2018-06-13T02:27:00.361Z,17.50
2018-06-13T02:29:29.150Z,17.40
2018-06-13T02:31:58.091Z,17.50
2018-06-13T02:34:26.887Z,17.60
2018-06-13T02:36:55.623Z,17.30
2018-06-13T02:39:24.750Z,17.40
2018-06-13T02:41:53.535Z,17.50
2018-06-13T02:44:22.637Z,17.50
2018-06-13T02:46:51.409Z,17.60
2018-06-13T02:49:20.227Z,17.50
2018-06-13T02:51:49.102Z,17.40
2018-06-13T02:54:18.050Z,17.20
2018-06-13T02:56:47.252Z,17.30
2018-06-13T02:59:16.280Z,17.40
2018-06-13T03:01:45.201Z,17.30
2018-06-13T03:04:14.742Z,17.30
2018-06-13T03:06:43.632Z,17.40
2018-06-13T03:09:12.740Z,17.30
2018-06-13T03:11:41.540Z,17.30
2018-06-13T03:14:11.034Z,17.20
2018-06-13T03:16:39.778Z,17.30
2018-06-13T03:19:08.664Z,17.10
2018-06-13T03:21:37.448Z,17.40
2018-06-13T03:24:06.177Z,17.20
2018-06-13T03:26:34.938Z,17.10
2018-06-13T03:29:04.413Z,17.20
2018-06-13T03:31:33.164Z,17.40
2018-06-13T03:34:01.914Z,17.40
2018-06-13T03:36:30.685Z,17.50
2018-06-13T03:38:59.765Z,17.50
2018-06-13T03:41:28.930Z,17.40
2018-06-13T03:43:58.121Z,17.50
2018-06-13T03:46:26.944Z,17.40
2018-06-13T03:48:55.950Z,17.40
2018-06-13T03:51:24.899Z,17.20
2018-06-13T03:53:54.056Z,16.90
2018-06-13T03:56:22.886Z,17.10
2018-06-13T04:01:26.825Z,17.30
2018-06-13T04:03:55.672Z,17.00
2018-06-13T04:06:24.545Z,17.10
2018-06-13T04:08:53.326Z,17.20
2018-06-13T04:11:22.060Z,17.30
2018-06-13T04:13:50.862Z,17.50
2018-06-13T04:16:19.943Z,17.30
2018-06-13T04:18:48.737Z,17.10
2018-06-13T04:21:17.875Z,17.20
2018-06-13T04:23:46.603Z,17.10
2018-06-13T04:26:15.345Z,17.20
2018-06-13T04:28:44.452Z,17.20
2018-06-13T04:31:13.577Z,16.90
2018-06-13T04:33:42.367Z,17.00
2018-06-13T04:36:11.156Z,17.00
2018-06-13T04:38:39.959Z,17.20
2018-06-13T04:41:08.774Z,17.00
2018-06-13T04:43:37.542Z,17.20
2018-06-13T04:46:06.844Z,17.30
2018-06-13T04:48:36.056Z,17.40
2018-06-13T04:51:05.256Z,17.50
2018-06-13T04:53:34.459Z,17.50
2018-06-13T04:56:03.846Z,17.50
2018-06-13T04:58:32.635Z,17.60
2018-06-13T05:01:01.422Z,17.60
2018-06-13T05:03:30.213Z,17.80
2018-06-13T05:05:59.292Z,17.90
2018-06-13T05:08:28.021Z,18.10
2018-06-13T05:10:56.913Z,17.80
2018-06-13T05:13:25.667Z,18.00
2018-06-13T05:15:54.434Z,18.10
2018-06-13T05:18:23.222Z,18.00
2018-06-13T05:20:52.037Z,18.00
2018-06-13T05:23:20.809Z,18.20
2018-06-13T05:25:49.574Z,18.20
2018-06-13T05:28:18.617Z,18.30
2018-06-13T05:30:47.732Z,18.20
2018-06-13T05:33:16.549Z,18.30
2018-06-13T05:35:45.432Z,17.90
2018-06-13T05:38:14.693Z,18.00
2018-06-13T05:40:43.720Z,18.10
2018-06-13T05:43:12.721Z,17.60
2018-06-13T05:45:43.154Z,17.90
2018-06-13T05:48:12.731Z,17.70
2018-06-13T05:50:41.717Z,17.90
2018-06-13T05:53:10.618Z,18.20
2018-06-13T05:55:39.786Z,18.10
2018-06-13T05:58:09.408Z,18.20
2018-06-13T06:00:38.250Z,18.40
2018-06-13T06:03:07.357Z,18.20
2018-06-13T06:05:36.069Z,18.40
2018-06-13T06:08:05.276Z,18.30
2018-06-13T06:10:34.117Z,18.20
2018-06-13T06:13:03.346Z,18.20
2018-06-13T06:15:32.436Z,18.20
2018-06-13T06:18:01.245Z,17.90
2018-06-13T06:20:30.059Z,17.80
2018-06-13T06:22:59.298Z,17.80
2018-06-13T06:25:28.137Z,17.70
2018-06-13T06:27:56.898Z,17.70
2018-06-13T06:30:26.146Z,17.80
2018-06-13T06:32:55.060Z,17.80
2018-06-13T06:35:24.034Z,17.60
2018-06-13T06:37:53.130Z,17.50
2018-06-13T06:40:22.109Z,17.60
2018-06-13T06:42:51.413Z,17.50
2018-06-13T06:45:20.368Z,17.60
2018-06-13T06:47:49.308Z,17.70
2018-06-13T06:50:18.259Z,17.80
2018-06-13T06:52:47.417Z,18.00
2018-06-13T06:55:16.940Z,18.00
2018-06-13T06:57:45.853Z,18.00
2018-06-13T07:00:14.597Z,18.10
2018-06-13T07:02:43.752Z,18.50
2018-06-13T07:05:12.657Z,18.70
2018-06-13T07:07:41.468Z,19.30
2018-06-13T07:10:10.313Z,19.30
2018-06-13T07:12:39.226Z,19.10
2018-06-13T07:15:08.352Z,19.20
2018-06-13T07:17:37.134Z,19.40
2018-06-13T07:20:06.037Z,19.60
2018-06-13T07:22:34.912Z,19.70
2018-06-13T07:25:04.187Z,20.40
2018-06-13T07:27:33.133Z,20.80
2018-06-13T07:30:02.653Z,19.50
2018-06-13T07:32:33.412Z,19.60
2018-06-13T07:35:02.305Z,19.40
2018-06-13T07:37:31.323Z,19.20
2018-06-13T07:40:01.138Z,19.50
2018-06-13T07:42:30.021Z,19.70
2018-06-13T07:44:59.203Z,20.10
2018-06-13T07:47:27.944Z,20.50
2018-06-13T07:49:56.740Z,22.60
2018-06-13T07:52:25.551Z,21.90
2018-06-13T07:54:54.333Z,23.30
2018-06-13T07:57:23.483Z,21.90
2018-06-13T07:59:52.290Z,25.20
2018-06-13T08:02:21.114Z,29.20
2018-06-13T08:04:50.036Z,26.10
2018-06-13T08:07:18.816Z,28.20
2018-06-13T08:09:47.573Z,27.10
2018-06-13T08:12:16.389Z,24.30
2018-06-13T08:14:45.244Z,22.90
2018-06-13T08:17:14.439Z,21.10
2018-06-13T08:19:43.336Z,20.30
2018-06-13T08:22:13.366Z,20.30
2018-06-13T08:24:52.733Z,21.10
2018-06-13T08:27:21.837Z,21.60
2018-06-13T08:29:50.650Z,21.60
2018-06-13T08:32:19.437Z,21.10
2018-06-13T08:34:48.305Z,21.30
2018-06-13T08:37:17.185Z,20.40
2018-06-13T08:39:46.068Z,21.60
2018-06-13T08:42:15.251Z,21.60
2018-06-13T08:44:44.551Z,21.40
2018-06-13T08:47:13.813Z,20.20
2018-06-13T08:49:43.327Z,20.00
2018-06-13T08:52:12.459Z,19.50
2018-06-13T08:54:41.532Z,19.60
2018-06-13T08:57:10.460Z,19.80
2018-06-13T08:59:39.657Z,19.60
2018-06-13T09:02:08.498Z,19.60
2018-06-13T09:04:37.756Z,19.40
2018-06-13T09:07:06.576Z,19.70
2018-06-13T09:09:35.435Z,19.80
2018-06-13T09:12:04.615Z,19.80
2018-06-13T09:14:33.523Z,19.90
2018-06-13T09:17:02.924Z,19.70
2018-06-13T09:19:32.046Z,19.90
2018-06-13T09:22:00.878Z,20.30
2018-06-13T09:24:30.334Z,20.80
2018-06-13T09:26:59.398Z,21.20
2018-06-13T09:29:28.157Z,21.20
2018-06-13T09:31:57.562Z,21.30
2018-06-13T09:34:26.379Z,21.00
2018-06-13T09:36:55.236Z,20.50
2018-06-13T09:39:24.081Z,20.50
2018-06-13T09:41:58.373Z,20.20
2018-06-13T09:44:27.545Z,20.20
2018-06-13T09:46:56.667Z,19.40
2018-06-13T09:49:26.020Z,19.40
2018-06-13T09:51:54.960Z,19.10
2018-06-13T09:54:24.308Z,19.20
2018-06-13T09:56:53.800Z,19.00
2018-06-13T09:59:23.096Z,19.10
2018-06-13T10:01:57.676Z,19.20
2018-06-13T10:04:26.689Z,19.30
2018-06-13T10:06:56.116Z,19.10
2018-06-13T10:09:25.052Z,19.20
2018-06-13T10:11:53.884Z,18.90
2018-06-13T10:14:22.825Z,19.30
2018-06-13T10:16:51.983Z,19.00
2018-06-13T10:19:21.137Z,19.10
2018-06-13T10:21:49.934Z,19.50
2018-06-13T10:24:19.104Z,19.80
2018-06-13T10:26:47.897Z,20.00
2018-06-13T10:29:16.723Z,20.00
2018-06-13T10:31:45.527Z,20.20
2018-06-13T10:34:14.307Z,20.40
2018-06-13T10:36:43.253Z,21.00
2018-06-13T10:39:12.414Z,20.70
2018-06-13T10:41:41.220Z,20.80
2018-06-13T10:44:10.017Z,20.70
2018-06-13T10:46:38.850Z,20.90
2018-06-13T10:49:07.748Z,20.60
2018-06-13T10:51:36.845Z,20.90
2018-06-13T10:54:06.287Z,20.60
2018-06-13T10:56:35.134Z,21.50
2018-06-13T10:59:04.201Z,21.40
2018-06-13T11:01:33.098Z,21.40
2018-06-13T11:04:02.280Z,21.40
2018-06-13T11:06:32.038Z,21.00
2018-06-13T11:09:01.280Z,21.00
2018-06-13T11:11:30.224Z,21.10
2018-06-13T11:13:59.018Z,20.30
2018-06-13T11:16:27.791Z,20.10
2018-06-13T11:18:57.024Z,19.80
2018-06-13T11:21:25.826Z,20.30
2018-06-13T11:23:54.608Z,20.00
2018-06-13T11:26:23.378Z,20.00
2018-06-13T11:28:52.547Z,19.80
2018-06-13T11:31:21.684Z,19.70
2018-06-13T11:33:50.488Z,18.80
2018-06-13T11:36:19.553Z,19.10
2018-06-13T11:38:48.656Z,18.80
2018-06-13T11:41:17.676Z,18.90
2018-06-13T11:43:46.545Z,18.90
2018-06-13T11:46:15.375Z,18.90
2018-06-13T11:48:44.778Z,19.10
2018-06-13T11:51:14.139Z,18.80
2018-06-13T11:53:43.494Z,18.40
2018-06-13T11:56:13.290Z,18.30
2018-06-13T11:58:42.872Z,18.80
2018-06-13T12:01:11.792Z,18.70
2018-06-13T12:03:40.652Z,18.80
2018-06-13T12:06:10.115Z,18.50
2018-06-13T12:08:39.098Z,18.70
2018-06-13T12:11:07.936Z,18.80
2018-06-13T12:13:37.023Z,18.90
2018-06-13T12:18:34.613Z,19.20
2018-06-13T12:21:04.153Z,19.30
2018-06-13T12:23:32.974Z,19.40
2018-06-13T12:26:01.799Z,19.20
2018-06-13T12:28:31.620Z,19.10
2018-06-13T12:31:01.448Z,18.70
2018-06-13T12:33:30.563Z,18.90
2018-06-13T12:35:59.431Z,19.20
2018-06-13T12:38:28.637Z,19.50
2018-06-13T12:40:57.597Z,19.50
2018-06-13T12:43:26.776Z,19.40
2018-06-13T12:45:55.981Z,19.30
2018-06-13T12:48:24.896Z,18.90
2018-06-13T12:50:54.161Z,18.60
2018-06-13T12:53:23.223Z,18.60
2018-06-13T12:55:52.242Z,18.90
2018-06-13T12:58:21.284Z,19.00
2018-06-13T13:00:50.673Z,19.10
2018-06-13T13:03:19.564Z,19.10
2018-06-13T13:05:48.440Z,19.00
2018-06-13T13:08:17.578Z,19.20
2018-06-13T13:10:47.004Z,19.40
2018-06-13T13:13:16.121Z,19.30
2018-06-13T13:15:45.222Z,19.40
2018-06-13T13:18:14.018Z,19.60
2018-06-13T13:20:42.858Z,19.70
2018-06-13T13:23:12.233Z,19.70
2018-06-13T13:25:41.476Z,19.80
2018-06-13T13:28:10.265Z,19.40
2018-06-13T13:30:39.229Z,19.30
2018-06-13T13:33:08.032Z,19.50
2018-06-13T13:35:36.945Z,19.90
2018-06-13T13:38:06.501Z,19.70
2018-06-13T13:40:35.495Z,19.70
2018-06-13T13:43:04.460Z,19.80
2018-06-13T13:45:33.803Z,19.70
2018-06-13T13:48:02.846Z,19.10
2018-06-13T13:50:31.742Z,19.40
2018-06-13T13:53:00.677Z,19.20
2018-06-13T13:55:29.598Z,19.10
2018-06-13T13:57:59.246Z,19.00
2018-06-13T14:00:28.053Z,19.00
2018-06-13T14:02:56.868Z,19.00
2018-06-13T14:05:26.327Z,19.00
2018-06-13T14:07:55.087Z,18.80
2018-06-13T14:10:24.539Z,18.40
2018-06-13T14:12:53.700Z,18.60
2018-06-13T14:15:22.851Z,19.00
2018-06-13T14:17:51.647Z,18.90
2018-06-13T14:20:20.428Z,18.90
2018-06-13T14:22:49.170Z,18.90
2018-06-13T14:25:18.004Z,18.90
2018-06-13T14:27:46.789Z,18.80
2018-06-13T14:30:15.987Z,19.00
2018-06-13T14:32:45.189Z,19.00
2018-06-13T14:35:14.007Z,18.90
2018-06-13T14:37:43.121Z,19.00
2018-06-13T14:40:12.400Z,19.10
2018-06-13T14:42:41.628Z,18.80
2018-06-13T14:45:10.871Z,18.80
2018-06-13T14:47:40.276Z,19.10
2018-06-13T14:50:09.368Z,19.10
2018-06-13T14:52:38.455Z,19.10
2018-06-13T14:55:07.618Z,19.20
2018-06-13T14:57:36.403Z,19.10
2018-06-13T15:00:05.344Z,18.80
2018-06-13T15:02:34.115Z,18.50
2018-06-13T15:05:03.285Z,19.00
2018-06-13T15:07:32.770Z,19.00
2018-06-13T15:10:01.905Z,18.70
2018-06-13T15:12:30.987Z,18.80
2018-06-13T15:14:59.745Z,19.00
2018-06-13T15:17:29.233Z,19.00
2018-06-13T15:19:58.532Z,19.10
2018-06-13T15:22:27.636Z,18.90
2018-06-13T15:24:56.791Z,18.70
2018-06-13T15:27:25.953Z,18.80
2018-06-13T15:29:54.935Z,18.90
2018-06-13T15:32:23.725Z,18.50
2018-06-13T15:34:52.662Z,18.50
2018-06-13T15:37:22.083Z,18.40
2018-06-13T15:39:51.304Z,18.50
2018-06-13T15:42:20.757Z,18.60
2018-06-13T15:44:50.103Z,18.60
2018-06-13T15:47:20.637Z,18.60
2018-06-13T15:49:49.548Z,18.40
2018-06-13T15:52:18.438Z,18.50
2018-06-13T15:54:48.342Z,18.40
2018-06-13T15:57:17.890Z,18.30
2018-06-13T15:59:47.144Z,18.20
2018-06-13T16:02:15.963Z,18.20
2018-06-13T16:04:44.861Z,18.20
2018-06-13T16:07:13.660Z,18.30
2018-06-13T16:09:42.751Z,18.30
2018-06-13T16:12:11.597Z,18.30
2018-06-13T16:14:40.831Z,18.60
2018-06-13T16:17:10.045Z,18.80
2018-06-13T16:19:38.924Z,18.90
2018-06-13T16:22:08.054Z,18.70
2018-06-13T16:24:37.229Z,18.70
2018-06-13T16:27:06.093Z,18.60
2018-06-13T16:29:34.878Z,18.90
2018-06-13T16:32:04.103Z,18.70
2018-06-13T16:34:33.306Z,18.60
2018-06-13T16:37:02.231Z,18.70
2018-06-13T16:39:31.658Z,18.70
2018-06-13T16:42:00.605Z,18.80
2018-06-13T16:44:29.861Z,18.80
2018-06-13T16:49:27.835Z,18.70
2018-06-13T16:51:58.159Z,18.60
2018-06-13T16:54:38.527Z,18.70
2018-06-13T16:57:07.469Z,18.70
2018-06-13T16:59:37.125Z,18.80
2018-06-13T17:02:06.810Z,18.20
2018-06-13T17:04:36.340Z,18.20
2018-06-13T17:09:33.751Z,18.30
2018-06-13T17:12:02.644Z,18.30
2018-06-13T17:14:31.512Z,18.10
2018-06-13T17:17:00.554Z,18.20
2018-06-13T17:19:29.432Z,18.30
2018-06-13T17:21:58.276Z,18.10
2018-06-13T17:24:27.478Z,18.40
2018-06-13T17:26:56.292Z,18.30
2018-06-13T17:29:25.120Z,18.40
2018-06-13T17:31:53.967Z,18.20
2018-06-13T17:34:22.804Z,18.20
2018-06-13T17:36:51.956Z,18.30
2018-06-13T17:39:20.741Z,18.20
2018-06-13T17:41:51.144Z,18.10
2018-06-13T17:44:20.077Z,18.00
2018-06-13T17:46:48.901Z,18.30
2018-06-13T17:49:17.738Z,18.30
2018-06-13T17:51:46.679Z,18.20
2018-06-13T17:56:44.315Z,17.90
2018-06-13T17:59:13.669Z,18.30
2018-06-13T18:01:43.302Z,18.20
2018-06-13T18:04:12.329Z,18.30
2018-06-13T18:06:41.366Z,18.40
2018-06-13T18:09:10.830Z,18.30
2018-06-13T18:11:39.853Z,18.30
2018-06-13T18:14:08.668Z,18.30
2018-06-13T18:16:44.766Z,18.60
2018-06-13T18:19:14.233Z,18.40
2018-06-13T18:21:43.238Z,18.80
2018-06-13T18:24:12.322Z,18.60
2018-06-13T18:26:41.603Z,18.60
2018-06-13T18:29:10.579Z,18.40
2018-06-13T18:31:39.454Z,18.50
2018-06-13T18:34:08.285Z,18.40
2018-06-13T18:36:37.959Z,18.20
2018-06-13T18:39:09.807Z,18.40
2018-06-13T18:41:38.648Z,18.20
2018-06-13T18:44:07.758Z,18.10
2018-06-13T18:46:36.586Z,18.10
2018-06-13T18:49:05.477Z,18.10
2018-06-13T18:51:34.285Z,18.30
2018-06-13T18:54:03.487Z,18.20
2018-06-13T18:56:32.620Z,18.20
2018-06-13T18:59:01.480Z,18.30
2018-06-13T19:01:31.022Z,18.30
2018-06-13T19:03:59.980Z,18.20
2018-06-13T19:06:29.106Z,18.20
2018-06-13T19:08:58.019Z,18.30
2018-06-13T19:11:27.057Z,18.60
2018-06-13T19:13:56.352Z,18.30
2018-06-13T19:16:26.043Z,18.20
2018-06-13T19:21:24.004Z,18.40
2018-06-13T19:23:54.150Z,18.50
2018-06-13T19:26:23.729Z,18.30
2018-06-13T19:28:53.164Z,18.40
2018-06-13T19:31:22.293Z,18.40
2018-06-13T19:33:51.344Z,18.30
2018-06-13T19:36:20.385Z,18.00
2018-06-13T19:38:49.779Z,18.00
2018-06-13T19:41:18.811Z,18.20
2018-06-13T19:43:48.110Z,18.10
2018-06-13T19:46:17.192Z,18.00
2018-06-13T19:51:17.633Z,17.80
2018-06-13T19:53:52.122Z,18.20
2018-06-13T19:56:25.150Z,18.10
2018-06-13T19:58:54.918Z,18.00
2018-06-13T20:01:24.059Z,18.00
2018-06-13T20:04:57.753Z,18.10
2018-06-13T20:07:26.733Z,17.90
2018-06-13T20:09:55.648Z,18.00
2018-06-13T20:12:42.527Z,18.20
2018-06-13T20:15:17.239Z,18.10
2018-06-13T20:17:51.706Z,18.10
2018-06-13T20:20:20.810Z,18.00
2018-06-13T20:22:49.731Z,18.20
2018-06-13T20:25:24.339Z,18.10
2018-06-13T20:27:58.756Z,18.10
2018-06-13T20:30:33.154Z,17.90
2018-06-13T20:33:02.108Z,18.00
2018-06-13T20:35:31.588Z,18.20
2018-06-13T20:38:01.644Z,18.30
2018-06-13T20:43:00.412Z,18.80
2018-06-13T20:45:29.299Z,18.50
2018-06-13T20:47:58.658Z,18.30
2018-06-13T20:50:27.577Z,18.50
2018-06-13T20:52:56.372Z,18.20
2018-06-13T20:55:25.167Z,18.40
2018-06-13T20:57:54.403Z,18.30
2018-06-13T21:00:23.280Z,18.20
2018-06-13T21:02:52.183Z,17.90
2018-06-13T21:05:21.710Z,18.00
2018-06-13T21:07:50.542Z,18.00
2018-06-13T21:10:19.465Z,18.00
2018-06-13T21:12:48.631Z,18.10
2018-06-13T21:15:17.599Z,18.00
2018-06-13T21:17:46.657Z,18.00
2018-06-13T21:20:15.976Z,18.00
2018-06-13T21:22:44.915Z,18.00
2018-06-13T21:25:13.951Z,18.10
2018-06-13T21:27:42.959Z,18.10
2018-06-13T21:32:40.780Z,17.90
2018-06-13T21:35:09.640Z,17.70
2018-06-13T21:37:38.998Z,17.80
2018-06-13T21:40:07.954Z,17.80
2018-06-13T21:42:36.994Z,17.90
2018-06-13T21:45:06.318Z,17.90
2018-06-13T21:47:35.101Z,17.90
2018-06-13T21:50:04.136Z,17.90
2018-06-13T21:52:33.176Z,18.00
2018-06-13T21:55:02.257Z,17.80
2018-06-13T21:57:31.501Z,17.90
2018-06-13T22:00:00.426Z,18.20
2018-06-13T22:02:29.694Z,18.20
2018-06-13T22:04:58.867Z,18.10
2018-06-13T22:07:27.679Z,17.80
2018-06-13T22:09:56.791Z,17.60
2018-06-13T22:12:25.706Z,17.60
2018-06-13T22:14:54.990Z,17.60
2018-06-13T22:17:24.363Z,17.70
2018-06-13T22:19:53.587Z,17.80
2018-06-13T22:22:22.850Z,17.70
2018-06-13T22:24:52.096Z,17.70
2018-06-13T22:27:21.578Z,17.60
2018-06-13T22:29:50.808Z,17.70
2018-06-13T22:32:19.851Z,17.80
2018-06-13T22:34:48.693Z,17.70
2018-06-13T22:37:17.804Z,17.70
2018-06-13T22:39:46.547Z,17.60
2018-06-13T22:42:15.642Z,17.60
2018-06-13T22:44:44.609Z,17.70
2018-06-13T22:47:13.380Z,17.60
2018-06-13T22:49:42.143Z,17.50
2018-06-13T22:52:11.841Z,17.20
2018-06-13T22:54:40.848Z,17.50
2018-06-13T22:57:09.619Z,17.20
2018-06-13T22:59:38.517Z,17.40
2018-06-13T23:02:07.311Z,17.30
2018-06-13T23:04:36.450Z,17.40
2018-06-13T23:07:05.599Z,17.50
2018-06-13T23:09:34.762Z,17.50
2018-06-13T23:12:03.692Z,17.50
2018-06-13T23:14:32.890Z,17.60
2018-06-13T23:17:02.092Z,17.60
2018-06-13T23:19:31.070Z,17.40
2018-06-13T23:21:59.980Z,17.50
2018-06-13T23:24:29.112Z,17.40
2018-06-13T23:26:57.938Z,17.30
2018-06-13T23:29:27.146Z,17.30
2018-06-13T23:31:55.890Z,17.30
2018-06-13T23:34:24.674Z,17.20
2018-06-13T23:36:53.584Z,17.30
2018-06-13T23:39:22.701Z,17.20
2018-06-13T23:41:51.889Z,17.10
2018-06-13T23:44:20.993Z,17.10
2018-06-13T23:46:49.788Z,17.10
2018-06-13T23:49:18.667Z,17.20
2018-06-13T23:51:47.449Z,17.10
2018-06-13T23:54:16.201Z,17.10
2018-06-13T23:56:45.028Z,17.10
2018-06-13T23:59:14.131Z,17.00
